Time;durP1;ratioP1;P1;durP2;ratioP2;P2;SDS_P1;SDS_P2;PMS_P1;PMS_P2;Temp;Humidity;BMP_temperature;BMP_pressure;BME280_temperature;BME280_humidity;BME280_pressure;Samples;Min_cycle;Max_cycle;Signal;HPM_P1;HPM_P2
2023/12/31 02:46:39;;;;;;;18.80;11.33;;;2.70;99.90;;;;;;6151030;23;20212;-84
2023/12/31 02:49:11;;;;;;;16.77;11.90;;;2.70;99.90;;;;;;6168703;23;20152;-84
2023/12/31 02:51:48;;;;;;;18.17;12.03;;;2.70;99.90;;;;;;6170356;23;20162;-85
2023/12/31 02:54:24;;;;;;;14.93;11.13;;;2.70;99.90;;;;;;6174352;23;20250;-87
2023/12/31 02:56:57;;;;;;;17.17;11.83;;;2.60;99.90;;;;;;6171234;23;20250;-86
2023/12/31 02:59:36;;;;;;;17.77;12.77;;;2.70;99.90;;;;;;6171696;23;20259;-87
2023/12/31 03:02:15;;;;;;;19.53;13.10;;;2.90;99.90;;;;;;6130481;23;20282;-85
2023/12/31 03:04:52;;;;;;;17.00;12.47;;;2.60;99.90;;;;;;6168252;23;20160;-88
2023/12/31 03:07:22;;;;;;;19.33;13.20;;;2.60;99.90;;;;;;6174370;23;20159;-86
2023/12/31 03:09:52;;;;;;;16.70;11.87;;;2.40;99.90;;;;;;6171144;23;20253;-85
2023/12/31 03:12:29;;;;;;;18.50;13.10;;;2.50;99.90;;;;;;6174275;23;20144;-86
2023/12/31 03:14:58;;;;;;;17.23;12.53;;;2.10;99.90;;;;;;6170571;23;20231;-84
2023/12/31 03:17:41;;;;;;;21.97;12.20;;;1.90;99.90;;;;;;6174600;23;20187;-86
2023/12/31 03:20:12;;;;;;;18.97;12.60;;;1.80;99.90;;;;;;6167490;23;20178;-85
2023/12/31 03:22:46;;;;;;;17.70;12.80;;;1.80;99.90;;;;;;6174329;23;20144;-85
2023/12/31 03:25:15;;;;;;;18.90;12.90;;;1.70;99.90;;;;;;6140560;23;20214;-84
2023/12/31 03:27:46;;;;;;;19.13;12.73;;;1.50;99.90;;;;;;6175652;23;20233;-84
2023/12/31 03:30:20;;;;;;;20.10;13.90;;;1.50;99.90;;;;;;6139721;23;20162;-87
2023/12/31 03:32:51;;;;;;;18.07;13.60;;;1.70;99.90;;;;;;6174564;23;20178;-83
2023/12/31 03:35:23;;;;;;;20.17;14.27;;;1.80;99.90;;;;;;6172733;23;20227;-85
2023/12/31 03:37:52;;;;;;;18.20;13.23;;;2.10;99.90;;;;;;6168064;23;20179;-88
2023/12/31 03:40:27;;;;;;;20.37;13.47;;;2.10;99.90;;;;;;6148427;23;20602;-86
2023/12/31 03:42:55;;;;;;;21.27;13.07;;;2.20;99.90;;;;;;6156123;23;20562;-86
2023/12/31 03:45:27;;;;;;;18.77;13.60;;;2.40;99.90;;;;;;6166851;23;20231;-86
2023/12/31 03:48:19;;;;;;;19.97;12.87;;;2.40;99.90;;;;;;6150770;23;20700;-85
2023/12/31 03:50:52;;;;;;;19.40;13.00;;;2.40;99.90;;;;;;6149174;23;20171;-85
2023/12/31 03:53:20;;;;;;;17.03;12.37;;;2.30;99.90;;;;;;6164995;23;20176;-86
2023/12/31 03:56:03;;;;;;;17.37;12.90;;;2.20;99.90;;;;;;6163711;23;20195;-86
2023/12/31 03:58:32;;;;;;;15.63;12.40;;;2.30;99.90;;;;;;6152237;23;20512;-86
2023/12/31 04:01:30;;;;;;;22.83;12.90;;;2.30;99.90;;;;;;6152755;23;20275;-86
2023/12/31 04:04:03;;;;;;;16.03;11.90;;;2.40;99.90;;;;;;6149909;23;20171;-86
2023/12/31 04:07:14;;;;;;;18.67;12.17;;;2.30;99.90;;;;;;6153150;23;20176;-86
2023/12/31 04:09:42;;;;;;;19.47;13.07;;;2.30;99.90;;;;;;6158518;23;20835;-84
2023/12/31 04:12:21;;;;;;;19.43;12.70;;;2.30;99.90;;;;;;6160055;23;20206;-85
2023/12/31 04:15:00;;;;;;;19.13;12.53;;;2.40;99.90;;;;;;6153261;23;20179;-84
2023/12/31 04:17:34;;;;;;;19.07;12.07;;;2.40;99.90;;;;;;6116507;23;20175;-85
2023/12/31 04:20:08;;;;;;;21.07;14.50;;;2.50;99.90;;;;;;6147823;23;20163;-84
2023/12/31 04:22:41;;;;;;;24.53;15.30;;;2.40;99.90;;;;;;6150270;23;20179;-87
2023/12/31 04:25:10;;;;;;;24.23;14.17;;;2.40;99.90;;;;;;6150423;23;20160;-86
2023/12/31 04:27:40;;;;;;;18.63;13.23;;;2.50;99.90;;;;;;6149621;23;20666;-84
2023/12/31 04:30:09;;;;;;;22.70;13.83;;;2.50;99.90;;;;;;6153215;23;20176;-86
2023/12/31 04:32:39;;;;;;;20.13;13.23;;;2.40;99.90;;;;;;6153940;23;20513;-85
2023/12/31 04:35:09;;;;;;;18.63;13.00;;;2.50;99.90;;;;;;6153518;23;20630;-84
2023/12/31 04:38:08;;;;;;;21.77;14.70;;;2.50;99.90;;;;;;6147111;23;20534;-87
2023/12/31 04:40:37;;;;;;;20.27;12.80;;;2.50;99.90;;;;;;6152879;23;20166;-86
2023/12/31 04:43:06;;;;;;;21.47;14.53;;;2.50;99.90;;;;;;6151157;23;20163;-84
2023/12/31 04:45:34;;;;;;;19.43;13.37;;;2.60;99.90;;;;;;6149601;23;20191;-85
2023/12/31 04:48:07;;;;;;;20.97;14.73;;;2.50;99.90;;;;;;6112597;23;20247;-85
2023/12/31 04:50:43;;;;;;;21.73;13.13;;;2.60;99.90;;;;;;6149900;23;20509;-86
2023/12/31 04:53:11;;;;;;;23.57;14.27;;;2.60;99.90;;;;;;6151802;23;20175;-85
2023/12/31 04:55:40;;;;;;;22.30;15.03;;;2.70;99.90;;;;;;6152503;23;20205;-85
2023/12/31 04:58:09;;;;;;;23.17;14.33;;;2.50;99.90;;;;;;6150607;23;20671;-84
2023/12/31 05:00:41;;;;;;;23.27;14.43;;;2.40;99.90;;;;;;6157511;23;20234;-85
2023/12/31 05:03:14;;;;;;;18.70;13.13;;;2.50;99.90;;;;;;6152493;23;20179;-85
2023/12/31 05:05:44;;;;;;;20.17;13.73;;;2.20;99.90;;;;;;6153389;23;20233;-84
2023/12/31 05:08:13;;;;;;;20.87;14.17;;;2.20;99.90;;;;;;6151235;23;20164;-85
2023/12/31 05:10:41;;;;;;;20.27;13.60;;;2.30;99.90;;;;;;6152215;23;20177;-86
2023/12/31 05:13:19;;;;;;;19.53;13.43;;;2.20;99.90;;;;;;6148425;23;20168;-84
2023/12/31 05:15:48;;;;;;;23.13;14.27;;;2.10;99.90;;;;;;6153860;23;20211;-85
2023/12/31 05:18:18;;;;;;;23.00;14.07;;;2.00;99.90;;;;;;6150265;23;20171;-86
2023/12/31 05:20:48;;;;;;;20.83;14.20;;;2.00;99.90;;;;;;6151186;23;20250;-85
2023/12/31 05:23:21;;;;;;;27.13;14.53;;;2.10;99.90;;;;;;6149696;23;20182;-85
2023/12/31 05:25:51;;;;;;;25.63;15.27;;;2.10;99.90;;;;;;6152653;23;20241;-86
2023/12/31 05:28:20;;;;;;;24.17;14.90;;;2.00;99.90;;;;;;6159279;23;20183;-84
2023/12/31 05:30:48;;;;;;;23.97;14.40;;;2.00;99.90;;;;;;6156015;23;20182;-85
2023/12/31 05:33:18;;;;;;;28.67;14.77;;;1.90;99.90;;;;;;6146848;23;20212;-86
2023/12/31 05:35:48;;;;;;;26.43;14.63;;;1.70;99.90;;;;;;6147641;23;20603;-85
2023/12/31 05:38:17;;;;;;;27.33;14.80;;;1.70;99.90;;;;;;6148457;23;20178;-88
2023/12/31 05:40:45;;;;;;;31.97;16.13;;;2.00;99.90;;;;;;6148385;23;20266;-89
2023/12/31 05:43:14;;;;;;;29.40;15.53;;;2.20;99.90;;;;;;6146829;23;20687;-87
2023/12/31 05:45:43;;;;;;;26.37;15.70;;;2.30;99.90;;;;;;6149950;23;20237;-88
2023/12/31 05:48:13;;;;;;;27.03;16.00;;;2.10;99.90;;;;;;6150246;23;20175;-84
2023/12/31 05:50:42;;;;;;;35.07;16.73;;;2.10;99.90;;;;;;6150291;23;20220;-87
2023/12/31 05:53:13;;;;;;;26.47;15.17;;;2.00;99.90;;;;;;6148344;23;20430;-86
2023/12/31 05:55:41;;;;;;;29.67;15.90;;;1.80;99.90;;;;;;6151058;23;20200;-87
2023/12/31 05:58:10;;;;;;;28.63;15.47;;;1.80;99.90;;;;;;6112592;23;20192;-86
2023/12/31 06:00:39;;;;;;;26.60;15.07;;;1.70;99.90;;;;;;6152035;23;20537;-86
2023/12/31 06:03:08;;;;;;;26.03;16.23;;;1.70;99.90;;;;;;6147614;23;20345;-85
2023/12/31 06:05:36;;;;;;;31.80;16.63;;;1.60;99.90;;;;;;6147333;23;20190;-86
2023/12/31 06:08:06;;;;;;;30.43;16.83;;;1.70;99.90;;;;;;6152072;23;20255;-88
2023/12/31 06:10:36;;;;;;;32.10;16.33;;;1.70;99.90;;;;;;6152467;23;20192;-85
2023/12/31 06:13:05;;;;;;;29.60;17.63;;;1.70;99.90;;;;;;6150906;23;20734;-85
2023/12/31 06:15:34;;;;;;;28.73;16.37;;;1.70;99.90;;;;;;6151197;23;20639;-84
2023/12/31 06:18:02;;;;;;;27.03;16.20;;;2.00;99.90;;;;;;6152708;23;20185;-88
2023/12/31 06:20:31;;;;;;;29.07;16.13;;;1.90;99.90;;;;;;6153162;23;20175;-86
2023/12/31 06:23:00;;;;;;;32.83;17.00;;;1.80;99.90;;;;;;6154794;23;20186;-86
2023/12/31 06:25:29;;;;;;;29.00;16.53;;;1.80;99.90;;;;;;6156767;23;20164;-84
2023/12/31 06:28:00;;;;;;;30.27;16.00;;;1.70;99.90;;;;;;6151766;23;20265;-84
2023/12/31 06:30:28;;;;;;;28.37;16.97;;;1.70;99.90;;;;;;6148366;23;20642;-85
2023/12/31 06:32:57;;;;;;;31.20;16.30;;;1.50;99.90;;;;;;6155993;23;20185;-85
2023/12/31 06:35:26;;;;;;;32.97;16.40;;;1.50;99.90;;;;;;6174630;23;20465;-89
2023/12/31 06:37:55;;;;;;;30.70;16.20;;;1.40;99.90;;;;;;6175265;23;20200;-84
2023/12/31 06:40:24;;;;;;;36.20;16.67;;;1.30;99.90;;;;;;6173242;23;20183;-87
2023/12/31 06:42:53;;;;;;;33.70;17.20;;;1.10;99.90;;;;;;6174556;23;20170;-85
2023/12/31 06:45:25;;;;;;;33.77;16.83;;;1.20;99.90;;;;;;6166261;23;20239;-85
2023/12/31 06:47:54;;;;;;;32.07;16.90;;;1.20;99.90;;;;;;6162335;23;20192;-85
2023/12/31 06:50:23;;;;;;;32.57;17.43;;;1.30;99.90;;;;;;6160803;23;20175;-85
2023/12/31 06:52:51;;;;;;;29.10;17.33;;;1.50;99.90;;;;;;6151059;23;20893;-84
2023/12/31 06:55:21;;;;;;;32.13;17.57;;;1.50;99.90;;;;;;6157415;23;20538;-84
2023/12/31 06:57:50;;;;;;;34.37;18.07;;;1.50;99.90;;;;;;6149427;23;20209;-86
2023/12/31 07:00:19;;;;;;;35.27;18.53;;;1.50;99.90;;;;;;6147260;23;20218;-86
2023/12/31 07:02:50;;;;;;;34.40;18.30;;;1.60;99.90;;;;;;6165883;23;20162;-85
2023/12/31 07:05:21;;;;;;;36.23;17.90;;;1.70;99.90;;;;;;6172423;23;20149;-85
2023/12/31 07:07:50;;;;;;;37.93;18.40;;;1.70;99.90;;;;;;6173376;23;20178;-87
2023/12/31 07:10:23;;;;;;;35.10;18.83;;;1.70;99.90;;;;;;6166514;23;20239;-86
2023/12/31 07:12:52;;;;;;;39.43;18.63;;;1.50;99.90;;;;;;6162233;23;20162;-86
2023/12/31 07:15:23;;;;;;;35.50;17.60;;;1.50;99.90;;;;;;6145874;23;20220;-86
2023/12/31 07:17:54;;;;;;;32.50;17.77;;;1.40;99.90;;;;;;6147029;23;20201;-85
2023/12/31 07:20:30;;;;;;;32.93;17.57;;;1.40;99.90;;;;;;6147457;23;20169;-85
2023/12/31 07:23:01;;;;;;;32.50;16.90;;;1.50;99.90;;;;;;6145966;23;20178;-85
2023/12/31 07:25:32;;;;;;;33.17;17.40;;;1.40;99.90;;;;;;6172614;23;20235;-86
2023/12/31 07:28:12;;;;;;;28.73;17.40;;;1.30;99.90;;;;;;6159206;23;20509;-86
2023/12/31 07:30:41;;;;;;;28.97;17.00;;;1.30;99.90;;;;;;6147337;23;20200;-85
2023/12/31 07:33:11;;;;;;;33.73;17.57;;;1.20;99.90;;;;;;6145335;23;20166;-86
2023/12/31 07:35:44;;;;;;;33.77;17.73;;;1.10;99.90;;;;;;6163535;23;20153;-83
2023/12/31 07:38:31;;;;;;;28.00;14.97;;;1.00;99.90;;;;;;6168756;23;20205;-83
2023/12/31 07:41:03;;;;;;;33.47;17.40;;;0.70;99.90;;;;;;6150779;23;20198;-86
2023/12/31 07:43:35;;;;;;;34.50;16.47;;;0.90;99.90;;;;;;6161296;23;20177;-85
2023/12/31 07:46:05;;;;;;;30.73;17.80;;;0.80;99.90;;;;;;6159692;23;20446;-85
2023/12/31 07:49:09;;;;;;;30.60;16.07;;;0.90;99.90;;;;;;6147612;23;20511;-85
2023/12/31 07:51:42;;;;;;;33.27;19.13;;;0.80;99.90;;;;;;6143145;23;20218;-85
2023/12/31 07:54:13;;;;;;;32.50;17.37;;;0.90;99.90;;;;;;6156063;23;20223;-85
2023/12/31 07:56:42;;;;;;;31.70;17.70;;;0.90;99.90;;;;;;6152312;23;20206;-84
2023/12/31 07:59:28;;;;;;;31.30;19.77;;;0.90;99.90;;;;;;6145741;23;20173;-86
2023/12/31 08:01:57;;;;;;;30.37;17.97;;;1.00;99.90;;;;;;6150114;23;20663;-86
2023/12/31 08:04:38;;;;;;;39.30;18.63;;;1.00;99.90;;;;;;6147808;23;20291;-84
2023/12/31 08:07:15;;;;;;;32.90;17.97;;;1.30;99.90;;;;;;6155641;23;20470;-85
2023/12/31 08:09:47;;;;;;;31.33;18.43;;;1.40;99.90;;;;;;6121883;23;20230;-85
2023/12/31 08:12:24;;;;;;;31.40;17.50;;;1.30;99.90;;;;;;6164309;23;20192;-85
2023/12/31 08:14:56;;;;;;;32.63;19.63;;;1.50;99.90;;;;;;6166634;23;20177;-85
2023/12/31 08:17:27;;;;;;;36.50;19.87;;;1.50;99.90;;;;;;6154573;23;20263;-82
2023/12/31 08:19:59;;;;;;;38.23;19.53;;;1.50;99.90;;;;;;6134732;23;20242;-86
2023/12/31 08:22:39;;;;;;;32.80;19.30;;;1.70;99.90;;;;;;6163463;23;20268;-84
2023/12/31 08:25:38;;;;;;;35.03;19.73;;;1.80;99.90;;;;;;6116670;23;20505;-84
2023/12/31 08:28:28;;;;;;;32.37;18.07;;;1.80;99.90;;;;;;6116506;23;20241;-87
2023/12/31 08:31:18;;;;;;;34.47;19.03;;;1.90;99.90;;;;;;6146041;23;20175;-87
2023/12/31 08:33:53;;;;;;;32.30;18.97;;;1.90;99.90;;;;;;6135536;23;20716;-84
2023/12/31 08:36:22;;;;;;;32.20;18.37;;;1.90;99.90;;;;;;6143443;23;20190;-83
2023/12/31 08:38:58;;;;;;;36.47;19.60;;;2.00;99.90;;;;;;6146884;23;20207;-83
2023/12/31 08:41:39;;;;;;;34.43;19.00;;;2.00;99.90;;;;;;6142729;23;20209;-84
2023/12/31 08:44:16;;;;;;;31.93;19.27;;;2.10;99.90;;;;;;6149411;23;20280;-84
2023/12/31 08:46:46;;;;;;;33.80;19.80;;;2.20;99.90;;;;;;6148153;23;20342;-83
2023/12/31 08:49:20;;;;;;;33.90;18.80;;;2.30;99.90;;;;;;6150570;23;20186;-85
2023/12/31 08:52:34;;;;;;;32.97;19.43;;;2.30;99.90;;;;;;6143159;23;20182;-84
2023/12/31 08:55:17;;;;;;;32.43;19.97;;;2.40;99.90;;;;;;6054080;23;20181;-87
2023/12/31 09:01:31;;;;;;;32.83;18.93;;;2.50;99.90;;;;;;6050551;23;20243;-87
2023/12/31 09:04:17;;;;;;;32.77;18.80;;;2.50;99.90;;;;;;6024116;23;20623;-86
2023/12/31 09:06:47;;;;;;;34.53;19.63;;;2.50;99.90;;;;;;6058196;23;20233;-85
2023/12/31 09:09:30;;;;;;;34.87;18.87;;;2.60;99.90;;;;;;6054519;23;20173;-84
2023/12/31 09:12:24;;;;;;;36.40;20.20;;;2.60;99.90;;;;;;6054970;23;20580;-86
2023/12/31 09:14:52;;;;;;;35.70;19.93;;;2.70;99.90;;;;;;6042937;23;20185;-86
2023/12/31 09:17:22;;;;;;;29.33;19.13;;;2.60;99.90;;;;;;6060024;23;20589;-86
2023/12/31 09:19:51;;;;;;;35.80;19.53;;;2.60;99.90;;;;;;6058107;23;20181;-87
2023/12/31 09:22:20;;;;;;;38.17;21.43;;;2.70;99.90;;;;;;6059560;23;20184;-83
2023/12/31 09:24:50;;;;;;;29.23;19.30;;;2.70;99.90;;;;;;6058434;23;20217;-86
2023/12/31 09:27:20;;;;;;;32.20;18.80;;;3.00;99.90;;;;;;6058685;23;20181;-86
2023/12/31 09:29:50;;;;;;;32.60;18.70;;;2.80;99.90;;;;;;6058920;23;20630;-87
2023/12/31 09:32:19;;;;;;;30.63;18.63;;;2.80;99.90;;;;;;6058097;23;20256;-84
2023/12/31 09:34:47;;;;;;;31.80;19.13;;;2.80;99.90;;;;;;6057680;23;20405;-86
2023/12/31 09:37:19;;;;;;;29.67;18.27;;;2.90;99.90;;;;;;6066170;23;20974;-85
2023/12/31 09:39:48;;;;;;;32.07;19.83;;;2.90;99.90;;;;;;6146996;23;20714;-86
2023/12/31 09:42:21;;;;;;;29.33;18.17;;;2.90;99.90;;;;;;6158476;23;20234;-87
2023/12/31 09:44:51;;;;;;;29.57;18.53;;;2.90;99.90;;;;;;6154829;23;20167;-84
2023/12/31 09:47:20;;;;;;;31.20;18.60;;;2.90;99.90;;;;;;6154956;23;20172;-89
2023/12/31 09:49:53;;;;;;;33.03;18.37;;;3.10;99.90;;;;;;6150875;23;20223;-84
2023/12/31 09:52:22;;;;;;;29.53;19.17;;;3.00;99.90;;;;;;6144977;23;20186;-88
2023/12/31 09:54:53;;;;;;;28.77;18.30;;;3.10;99.90;;;;;;6149086;23;20172;-85
2023/12/31 09:57:27;;;;;;;30.27;17.70;;;3.10;99.90;;;;;;6159618;23;20226;-86
2023/12/31 09:59:58;;;;;;;28.43;17.07;;;3.10;99.90;;;;;;6153538;23;20187;-86
2023/12/31 10:02:27;;;;;;;31.77;17.33;;;3.10;99.90;;;;;;6111793;23;20622;-86
2023/12/31 10:04:56;;;;;;;30.17;17.50;;;3.10;99.90;;;;;;6148792;23;20175;-86
2023/12/31 10:08:08;;;;;;;29.97;16.67;;;3.20;99.90;;;;;;6146756;23;20164;-86
2023/12/31 10:10:39;;;;;;;27.30;17.53;;;3.20;99.90;;;;;;6102862;23;20772;-86
2023/12/31 10:13:15;;;;;;;26.30;17.03;;;3.20;99.90;;;;;;6157687;23;20223;-86
2023/12/31 10:16:12;;;;;;;27.73;16.50;;;3.20;99.90;;;;;;6150239;23;20187;-84
2023/12/31 10:18:41;;;;;;;28.80;17.10;;;3.30;99.90;;;;;;6149635;23;20739;-85
2023/12/31 10:21:11;;;;;;;26.90;16.73;;;3.40;99.90;;;;;;6149526;23;20182;-86
2023/12/31 10:23:40;;;;;;;27.43;16.60;;;3.40;99.90;;;;;;6147371;23;20243;-85
2023/12/31 10:26:11;;;;;;;28.03;17.23;;;3.40;99.90;;;;;;6146469;23;20230;-86
2023/12/31 10:28:40;;;;;;;27.40;17.00;;;3.40;99.90;;;;;;6147209;23;20159;-86
2023/12/31 10:31:11;;;;;;;24.70;16.43;;;3.50;99.90;;;;;;6135851;23;20179;-86
2023/12/31 10:33:41;;;;;;;29.73;17.70;;;3.50;99.90;;;;;;6159091;23;20172;-84
2023/12/31 10:36:11;;;;;;;26.80;16.97;;;3.50;99.90;;;;;;6127455;23;20183;-85
2023/12/31 10:38:50;;;;;;;28.03;17.13;;;3.50;99.90;;;;;;6143486;23;20359;-84
2023/12/31 10:41:25;;;;;;;26.23;16.67;;;3.50;99.90;;;;;;6142291;23;20754;-86
2023/12/31 10:44:03;;;;;;;25.97;16.73;;;3.50;99.90;;;;;;6145408;23;20282;-86
2023/12/31 10:46:53;;;;;;;28.73;18.03;;;3.50;99.90;;;;;;6140420;23;20187;-86
2023/12/31 10:49:23;;;;;;;28.47;17.07;;;3.60;99.90;;;;;;6106790;23;20179;-87
2023/12/31 10:51:54;;;;;;;27.47;17.37;;;3.60;99.90;;;;;;6143359;23;20182;-84
2023/12/31 10:54:39;;;;;;;28.67;17.00;;;3.60;99.90;;;;;;6141142;23;20167;-85
2023/12/31 10:57:16;;;;;;;26.50;16.97;;;3.50;99.90;;;;;;6146762;23;20607;-84
2023/12/31 10:59:48;;;;;;;27.43;17.47;;;3.60;99.90;;;;;;6146480;23;20241;-86
2023/12/31 11:02:20;;;;;;;30.90;19.10;;;3.60;99.90;;;;;;6145824;23;20176;-85
2023/12/31 11:04:50;;;;;;;28.07;18.63;;;3.70;99.90;;;;;;6149256;23;20176;-86
2023/12/31 11:07:22;;;;;;;29.30;18.27;;;3.80;99.90;;;;;;6146898;23;20191;-86
2023/12/31 11:09:52;;;;;;;27.23;17.63;;;3.80;99.90;;;;;;6148721;23;20179;-86
2023/12/31 11:12:21;;;;;;;27.03;17.93;;;3.70;99.90;;;;;;6154948;23;20194;-86
2023/12/31 11:14:56;;;;;;;27.83;18.17;;;3.90;99.90;;;;;;6142845;23;20224;-84
2023/12/31 11:17:46;;;;;;;28.47;18.30;;;3.70;99.90;;;;;;6148349;23;20182;-86
2023/12/31 11:20:29;;;;;;;28.03;18.60;;;3.90;99.90;;;;;;6113844;23;20515;-85
2023/12/31 11:23:07;;;;;;;27.83;18.57;;;3.70;99.90;;;;;;6146315;23;20565;-87
2023/12/31 11:25:39;;;;;;;33.07;17.43;;;3.70;99.90;;;;;;6111205;23;20179;-89
2023/12/31 11:28:55;;;;;;;27.90;18.83;;;3.70;99.90;;;;;;6173476;23;20151;-87
2023/12/31 11:31:33;;;;;;;27.60;17.90;;;3.80;99.90;;;;;;6175345;23;20214;-87
2023/12/31 11:34:10;;;;;;;26.17;17.23;;;3.60;99.90;;;;;;6137147;23;20164;-84
2023/12/31 11:36:42;;;;;;;28.83;18.83;;;3.60;99.90;;;;;;6173712;23;20159;-85
2023/12/31 11:39:17;;;;;;;30.10;18.17;;;3.60;99.90;;;;;;6133965;23;20208;-85
2023/12/31 11:42:32;;;;;;;31.73;19.00;;;3.80;99.90;;;;;;6160351;23;20163;-88
2023/12/31 11:45:01;;;;;;;31.30;18.53;;;3.60;99.90;;;;;;6042457;23;20551;-86
2023/12/31 11:47:33;;;;;;;28.40;18.13;;;3.60;99.90;;;;;;6150079;23;20180;-84
2023/12/31 11:50:24;;;;;;;28.30;18.03;;;3.60;99.90;;;;;;6152584;23;20160;-86
2023/12/31 11:52:54;;;;;;;31.07;19.53;;;3.60;99.90;;;;;;6118609;23;20183;-88
2023/12/31 11:55:53;;;;;;;33.97;20.97;;;3.60;99.90;;;;;;6115562;23;20577;-87
2023/12/31 11:58:22;;;;;;;29.63;20.20;;;3.80;99.90;;;;;;6149994;23;20171;-88
2023/12/31 12:01:01;;;;;;;36.27;21.43;;;3.80;99.90;;;;;;6145036;23;20214;-85
2023/12/31 12:03:30;;;;;;;30.90;20.63;;;3.70;99.90;;;;;;6158226;23;20355;-86
2023/12/31 12:06:01;;;;;;;36.30;20.20;;;3.70;99.90;;;;;;6157204;23;20371;-86
2023/12/31 12:08:40;;;;;;;31.30;20.70;;;3.60;99.90;;;;;;6154467;23;20172;-87
2023/12/31 12:11:11;;;;;;;35.90;21.07;;;3.60;99.90;;;;;;6156648;23;20179;-84
2023/12/31 12:13:40;;;;;;;31.87;20.17;;;3.60;99.90;;;;;;6167447;23;20163;-85
2023/12/31 12:16:08;;;;;;;30.73;20.40;;;3.50;99.90;;;;;;6174429;23;20186;-85
2023/12/31 12:18:40;;;;;;;34.00;19.63;;;3.50;99.90;;;;;;6173398;23;20164;-86
2023/12/31 12:21:10;;;;;;;30.67;20.40;;;3.50;99.90;;;;;;6165407;23;20247;-86
2023/12/31 12:23:39;;;;;;;31.30;20.03;;;3.50;99.90;;;;;;6157574;23;20164;-88
2023/12/31 12:26:09;;;;;;;31.33;19.67;;;3.50;99.90;;;;;;6157422;23;20167;-86
2023/12/31 12:28:40;;;;;;;31.03;20.27;;;3.60;99.90;;;;;;6151412;23;20210;-85
2023/12/31 12:31:09;;;;;;;32.87;20.80;;;3.60;99.90;;;;;;6149143;23;20163;-87
2023/12/31 12:33:38;;;;;;;32.77;21.00;;;3.70;99.90;;;;;;6114269;23;20175;-84
2023/12/31 12:36:06;;;;;;;31.47;20.30;;;3.70;99.90;;;;;;6158346;23;20164;-85
2023/12/31 12:38:37;;;;;;;31.40;20.80;;;3.70;99.90;;;;;;6157467;23;20219;-87
2023/12/31 12:41:06;;;;;;;33.70;20.37;;;3.70;99.90;;;;;;6113774;23;20518;-86
2023/12/31 12:43:40;;;;;;;32.93;20.43;;;3.80;99.90;;;;;;6149422;23;20626;-88
2023/12/31 12:46:11;;;;;;;33.73;20.00;;;4.00;99.90;;;;;;6150796;23;20270;-87
2023/12/31 12:48:41;;;;;;;35.07;20.33;;;3.80;99.90;;;;;;6153799;23;20168;-87
2023/12/31 12:51:10;;;;;;;34.23;20.33;;;3.80;99.90;;;;;;6160973;23;20179;-87
2023/12/31 12:53:43;;;;;;;35.03;20.80;;;3.80;99.90;;;;;;6155025;23;20181;-85
2023/12/31 12:56:12;;;;;;;33.43;20.43;;;3.90;99.90;;;;;;6164326;23;20171;-86
2023/12/31 12:58:45;;;;;;;33.27;20.13;;;4.00;99.90;;;;;;6130838;23;20232;-87
2023/12/31 13:01:13;;;;;;;30.83;19.53;;;4.00;99.90;;;;;;6174474;23;20279;-86
2023/12/31 13:03:55;;;;;;;31.73;20.57;;;4.00;99.90;;;;;;6164791;23;20591;-85
2023/12/31 13:06:23;;;;;;;34.93;20.47;;;4.10;99.90;;;;;;6153700;23;20182;-84
2023/12/31 13:08:54;;;;;;;31.27;20.37;;;4.10;99.90;;;;;;6163767;23;20174;-83
2023/12/31 13:11:22;;;;;;;32.93;20.57;;;4.30;99.90;;;;;;6160235;23;20167;-87
2023/12/31 13:14:00;;;;;;;31.43;19.77;;;4.20;99.90;;;;;;6154523;23;20462;-86
2023/12/31 13:16:30;;;;;;;36.77;20.20;;;4.20;99.90;;;;;;6154283;23;20657;-86
2023/12/31 13:19:23;;;;;;;27.33;18.90;;;4.20;99.90;;;;;;6154150;23;20191;-86
2023/12/31 13:21:52;;;;;;;29.40;18.90;;;4.20;99.90;;;;;;6154317;23;20246;-86
2023/12/31 13:24:23;;;;;;;29.97;19.23;;;4.20;99.90;;;;;;6151551;23;20180;-87
2023/12/31 13:26:52;;;;;;;28.07;18.00;;;4.20;99.90;;;;;;6155263;23;20194;-88
2023/12/31 13:29:23;;;;;;;29.40;18.33;;;4.20;99.90;;;;;;6151167;23;20171;-86
2023/12/31 13:31:52;;;;;;;26.40;18.20;;;4.20;99.90;;;;;;6118055;23;20669;-87
2023/12/31 13:34:21;;;;;;;26.63;17.00;;;4.20;99.90;;;;;;6162659;23;20171;-87
2023/12/31 13:36:51;;;;;;;26.50;18.10;;;4.10;99.90;;;;;;6159968;23;20179;-85
2023/12/31 13:39:30;;;;;;;28.97;18.50;;;4.10;99.90;;;;;;6151103;23;20199;-87
2023/12/31 13:42:00;;;;;;;32.47;18.40;;;4.00;99.90;;;;;;6155539;23;20195;-86
2023/12/31 13:44:29;;;;;;;27.33;17.93;;;3.90;99.90;;;;;;6156461;23;20180;-87
2023/12/31 13:46:58;;;;;;;28.63;18.13;;;4.10;99.90;;;;;;6154588;23;20203;-86
2023/12/31 13:49:28;;;;;;;27.23;16.73;;;3.80;99.90;;;;;;6154926;23;20176;-86
2023/12/31 13:51:57;;;;;;;27.57;17.17;;;3.80;99.90;;;;;;6115776;23;20970;-86
2023/12/31 13:54:26;;;;;;;25.30;16.43;;;3.80;99.90;;;;;;6154445;23;20674;-86
2023/12/31 13:56:56;;;;;;;24.00;17.03;;;3.70;99.90;;;;;;6155325;23;20515;-85
2023/12/31 13:59:25;;;;;;;27.60;15.80;;;3.60;99.90;;;;;;6153757;23;20174;-84
2023/12/31 14:01:57;;;;;;;29.47;17.00;;;3.50;99.90;;;;;;6152673;23;20199;-87
2023/12/31 14:04:30;;;;;;;27.40;16.00;;;3.50;99.90;;;;;;6156646;23;20179;-85
2023/12/31 14:07:08;;;;;;;27.77;16.27;;;3.40;99.90;;;;;;6153712;23;20179;-86
2023/12/31 14:09:40;;;;;;;29.27;16.53;;;3.70;99.90;;;;;;6151443;23;20171;-85
2023/12/31 14:12:38;;;;;;;26.97;17.50;;;3.60;99.90;;;;;;6148788;23;20176;-86
2023/12/31 14:15:41;;;;;;;28.80;16.40;;;3.30;99.90;;;;;;6153746;23;20176;-86
2023/12/31 14:18:13;;;;;;;25.97;16.70;;;3.50;99.90;;;;;;6123014;23;20700;-85
2023/12/31 14:20:48;;;;;;;25.60;16.93;;;3.40;99.90;;;;;;6154891;23;20263;-85
2023/12/31 14:23:17;;;;;;;27.23;18.03;;;3.40;99.90;;;;;;6155719;23;20163;-88
2023/12/31 14:25:46;;;;;;;30.60;18.77;;;3.30;99.90;;;;;;6155821;23;20163;-85
2023/12/31 14:28:45;;;;;;;28.17;19.50;;;3.20;99.90;;;;;;6157432;23;20259;-87
2023/12/31 14:31:14;;;;;;;32.10;19.23;;;3.20;99.90;;;;;;6153457;23;20618;-86
2023/12/31 14:33:43;;;;;;;31.67;20.43;;;3.10;99.90;;;;;;6151635;23;20179;-85
2023/12/31 14:36:17;;;;;;;33.87;21.10;;;3.30;99.90;;;;;;6155735;23;20252;-87
2023/12/31 14:38:46;;;;;;;35.37;20.83;;;3.10;99.90;;;;;;6157825;23;20183;-87
2023/12/31 14:41:16;;;;;;;33.20;20.80;;;3.20;99.90;;;;;;6154147;23;20205;-86
2023/12/31 14:43:46;;;;;;;36.27;21.87;;;3.30;99.90;;;;;;6152588;23;20543;-87
2023/12/31 14:46:18;;;;;;;34.23;20.73;;;3.30;99.90;;;;;;6155457;23;20191;-85
2023/12/31 14:48:46;;;;;;;35.10;22.20;;;3.30;99.90;;;;;;6121794;23;20433;-86
2023/12/31 14:51:37;;;;;;;39.73;22.47;;;3.30;99.90;;;;;;6139713;23;20187;-85
2023/12/31 14:54:06;;;;;;;34.37;20.07;;;3.40;99.90;;;;;;6150797;23;20825;-86
2023/12/31 14:56:44;;;;;;;37.13;21.73;;;3.10;99.90;;;;;;6149913;23;20214;-88
2023/12/31 14:59:15;;;;;;;38.20;22.57;;;3.00;99.90;;;;;;6113495;23;20172;-86
2023/12/31 15:01:44;;;;;;;38.90;22.07;;;3.10;99.90;;;;;;6115146;23;20782;-86
2023/12/31 15:04:22;;;;;;;32.90;21.93;;;3.00;99.90;;;;;;6151152;23;20510;-86
2023/12/31 15:07:11;;;;;;;33.83;21.10;;;3.00;99.90;;;;;;6152529;23;20555;-88
2023/12/31 15:09:40;;;;;;;36.40;23.70;;;2.90;99.90;;;;;;6153011;23;20242;-84
2023/12/31 15:12:14;;;;;;;34.73;22.37;;;2.70;99.90;;;;;;6148615;23;20567;-85
2023/12/31 15:14:44;;;;;;;37.07;22.33;;;2.60;99.90;;;;;;6163940;23;20179;-85
2023/12/31 15:17:13;;;;;;;36.93;23.43;;;2.60;99.90;;;;;;6163342;23;20513;-85
2023/12/31 15:19:49;;;;;;;44.13;25.53;;;2.70;99.90;;;;;;6167651;23;20239;-87
2023/12/31 15:22:24;;;;;;;44.40;25.97;;;2.60;99.90;;;;;;6136866;23;20194;-86
2023/12/31 15:24:53;;;;;;;39.97;22.40;;;2.90;99.90;;;;;;6176074;23;20665;-86
2023/12/31 15:27:48;;;;;;;39.63;23.10;;;2.90;99.90;;;;;;6164701;23;20176;-87
2023/12/31 15:30:18;;;;;;;41.43;23.67;;;3.00;99.90;;;;;;6124996;23;20184;-85
2023/12/31 15:32:50;;;;;;;34.47;20.60;;;3.10;99.90;;;;;;6118753;23;20174;-87
2023/12/31 15:35:19;;;;;;;35.40;21.80;;;3.00;99.90;;;;;;6151280;23;20557;-87
2023/12/31 15:37:48;;;;;;;38.60;24.20;;;3.30;99.90;;;;;;6156948;23;20600;-85
2023/12/31 15:40:27;;;;;;;40.80;23.83;;;2.90;99.90;;;;;;6151135;23;20184;-85
2023/12/31 15:42:57;;;;;;;45.63;26.77;;;3.00;99.90;;;;;;6120581;23;20212;-87
2023/12/31 15:45:27;;;;;;;40.17;26.10;;;3.00;99.90;;;;;;6162465;23;20190;-85
2023/12/31 15:47:57;;;;;;;46.07;25.23;;;2.80;99.90;;;;;;6150560;23;20179;-86
2023/12/31 15:50:27;;;;;;;45.07;26.27;;;2.80;99.90;;;;;;6141092;23;20737;-86
2023/12/31 15:53:05;;;;;;;45.73;25.97;;;2.70;99.90;;;;;;6149247;23;20217;-88
2023/12/31 15:55:40;;;;;;;46.83;27.47;;;2.70;99.90;;;;;;6115792;23;20244;-85
2023/12/31 15:58:12;;;;;;;46.47;26.83;;;2.70;99.90;;;;;;6158496;23;20217;-86